Language selection

My Weather Profile Weather Topics  | 

Dixon Entrance East: Past 24 Hour Conditions

 

South Moresby - 46147

08:00 PM PDT 18 September 2021Buoy position: 51.83N 131.23W
Disclaimer

This table is a summary of hourly weather conditions for the past 24 hours.
Please note that these observations might not always be representative of weather conditions over their associated marine area.

Date / Time
(PDT)
Wind(knots) Wave height(m) Wave period(s) Pressure(kPa) Air tempC) Water tempC)
18 September 2021
20:00 WSW 8 gust 10 3.4 10.0 100.1 14 12
19:00 WSW 10 gust 12 3.6 10.0 100.0 14 13
18:00 SW 10 gust 13 3.3 10.0 99.9 14 13
17:00 N/A N/A N/A N/A N/A N/A
16:00 SSW 10 gust 13 3.1 10.0 99.8 14 14
15:00 SSW 12 gust 13 3.1 9.0 99.7 14 14
14:00 SW 10 gust 12 2.8 10.0 99.6 14 14
13:00 SW 13 gust 17 2.9 10.0 99.5 14 15
12:00 SSW 16 gust 19 2.7 9.0 99.4 13 14
11:00 W 13 gust 23 2.5 10.0 99.3 12 14
10:00 WSW 12 gust 16 N/A 10.0 99.2 14 14
9:00 SW 13 gust 16 2.6 9.0 99.1 13 14
8:00 SSW 13 gust 17 2.6 8.0 99.0 13 14
7:00 SW 13 gust 17 2.6 9.0 99.0 14 14
6:00 SW 16 gust 22 2.9 8.0 98.9 14 14
5:00 SW 19 gust 23 2.8 8.0 98.9 14 14
4:00 WSW 17 gust 19 2.6 8.0 98.8 14 14
3:00 WSW 16 gust 19 2.5 8.0 98.8 14 14
2:00 WSW 17 gust 22 2.6 8.0 98.7 14 14
1:00 S 12 gust 16 2.7 9.0 98.7 13 14
0:00 S 12 gust 13 2.4 9.0 98.7 13 14
17 September 2021
23:00 S 10 gust 12 2.5 8.0 98.7 13 14
22:00 S 10 gust 12 2.5 9.0 98.7 13 14
21:00 S 10 gust 13 2.7 9.0 98.7 13 14
20:00 S 10 gust 12 2.8 9.0 98.7 13 14

Zoom-in to make a selection

Map of Pacific - North Coast marine weather areas Middle Nomad - 46004 South Nomad - 46036 Dixon Entrance Central - 46145 South Moresby - 46147 Nanakwa Shoal - 46181 North Hecate Strait - 46183 North Nomad - 46184 South Hecate Strait - 46185 West Sea Otter - 46204 West Dixon Entrance - 46205 East Dellwood - 46207 West Moresby - 46208 Sartine Island Cape St.James Kindakun Rocks Langara Island Masset Municipal Airport Rose Spit Sandspit Airport Bella Bella Airport Bella Coola Airport Bonilla Island Cathedral Point Cumshewa Island Grey Islet Holland Rock Lucy Islands Lightstation Prince Rupert Airport
Legend:
buoy Buoy
land station Land Station

Pacific - North Coast Area

Another Region

What we are doing

Date modified: